sensor_id;sensor_type;location;lat;lon;timestamp;P1;durP1;ratioP1;P2;durP2;ratioP2
781;SDS011;374;52.568;13.402;2022-09-21T00:01:58;5.83;;;4.90;;
781;SDS011;374;52.568;13.402;2022-09-21T00:04:23;7.33;;;4.50;;
781;SDS011;374;52.568;13.402;2022-09-21T00:06:49;5.60;;;5.00;;
781;SDS011;374;52.568;13.402;2022-09-21T00:09:14;5.20;;;4.70;;
781;SDS011;374;52.568;13.402;2022-09-21T00:11:40;5.93;;;5.10;;
781;SDS011;374;52.568;13.402;2022-09-21T00:14:10;5.73;;;4.80;;
781;SDS011;374;52.568;13.402;2022-09-21T00:16:38;5.07;;;4.33;;
781;SDS011;374;52.568;13.402;2022-09-21T00:19:04;4.77;;;4.37;;
781;SDS011;374;52.568;13.402;2022-09-21T00:21:30;5.37;;;4.47;;
781;SDS011;374;52.568;13.402;2022-09-21T00:23:57;5.67;;;5.07;;
781;SDS011;374;52.568;13.402;2022-09-21T00:26:24;5.07;;;4.57;;
781;SDS011;374;52.568;13.402;2022-09-21T00:28:55;4.90;;;4.30;;
781;SDS011;374;52.568;13.402;2022-09-21T00:31:23;6.10;;;4.40;;
781;SDS011;374;52.568;13.402;2022-09-21T00:33:50;5.43;;;4.43;;
781;SDS011;374;52.568;13.402;2022-09-21T00:36:16;6.70;;;4.50;;
781;SDS011;374;52.568;13.402;2022-09-21T00:38:44;4.90;;;4.50;;
781;SDS011;374;52.568;13.402;2022-09-21T00:41:13;5.97;;;4.50;;
781;SDS011;374;52.568;13.402;2022-09-21T00:43:41;5.20;;;4.77;;
781;SDS011;374;52.568;13.402;2022-09-21T00:46:13;7.87;;;4.70;;
781;SDS011;374;52.568;13.402;2022-09-21T00:48:51;6.03;;;5.30;;
781;SDS011;374;52.568;13.402;2022-09-21T00:51:17;5.70;;;5.10;;
781;SDS011;374;52.568;13.402;2022-09-21T00:53:43;4.17;;;3.77;;
781;SDS011;374;52.568;13.402;2022-09-21T00:56:12;5.53;;;4.40;;
781;SDS011;374;52.568;13.402;2022-09-21T00:58:40;6.07;;;3.87;;
781;SDS011;374;52.568;13.402;2022-09-21T01:01:09;4.90;;;4.47;;
781;SDS011;374;52.568;13.402;2022-09-21T01:03:36;4.50;;;4.10;;
781;SDS011;374;52.568;13.402;2022-09-21T01:06:10;4.73;;;4.30;;
781;SDS011;374;52.568;13.402;2022-09-21T01:08:36;6.13;;;5.67;;
781;SDS011;374;52.568;13.402;2022-09-21T01:11:25;5.23;;;4.73;;
781;SDS011;374;52.568;13.402;2022-09-21T01:16:27;6.33;;;4.30;;
781;SDS011;374;52.568;13.402;2022-09-21T01:19:21;4.80;;;4.40;;
781;SDS011;374;52.568;13.402;2022-09-21T01:22:00;4.50;;;4.10;;
781;SDS011;374;52.568;13.402;2022-09-21T01:24:51;4.57;;;4.17;;
781;SDS011;374;52.568;13.402;2022-09-21T01:27:41;4.73;;;4.23;;
781;SDS011;374;52.568;13.402;2022-09-21T01:30:21;4.77;;;4.20;;
781;SDS011;374;52.568;13.402;2022-09-21T01:32:55;5.20;;;4.70;;
781;SDS011;374;52.568;13.402;2022-09-21T01:35:23;5.07;;;4.57;;
781;SDS011;374;52.568;13.402;2022-09-21T01:38:04;3.93;;;3.60;;
781;SDS011;374;52.568;13.402;2022-09-21T01:40:36;4.27;;;3.87;;
781;SDS011;374;52.568;13.402;2022-09-21T01:43:09;4.47;;;4.07;;
781;SDS011;374;52.568;13.402;2022-09-21T01:45:46;4.23;;;3.83;;
781;SDS011;374;52.568;13.402;2022-09-21T01:48:15;4.57;;;4.10;;
781;SDS011;374;52.568;13.402;2022-09-21T01:50:44;4.90;;;4.40;;
781;SDS011;374;52.568;13.402;2022-09-21T01:53:25;5.97;;;4.53;;
781;SDS011;374;52.568;13.402;2022-09-21T01:55:58;3.70;;;3.40;;
781;SDS011;374;52.568;13.402;2022-09-21T01:58:30;4.97;;;4.57;;
781;SDS011;374;52.568;13.402;2022-09-21T02:01:00;5.97;;;3.97;;
781;SDS011;374;52.568;13.402;2022-09-21T02:03:34;4.30;;;3.90;;
781;SDS011;374;52.568;13.402;2022-09-21T02:06:04;4.80;;;4.40;;
781;SDS011;374;52.568;13.402;2022-09-21T02:08:33;4.00;;;3.60;;
781;SDS011;374;52.568;13.402;2022-09-21T02:11:01;4.73;;;4.23;;
781;SDS011;374;52.568;13.402;2022-09-21T02:13:29;4.50;;;4.10;;
781;SDS011;374;52.568;13.402;2022-09-21T02:19:13;5.47;;;4.63;;
781;SDS011;374;52.568;13.402;2022-09-21T02:27:49;4.50;;;4.10;;
781;SDS011;374;52.568;13.402;2022-09-21T02:30:25;4.60;;;4.20;;
781;SDS011;374;52.568;13.402;2022-09-21T02:33:14;6.43;;;3.97;;
781;SDS011;374;52.568;13.402;2022-09-21T02:44:09;5.33;;;4.07;;
781;SDS011;374;52.568;13.402;2022-09-21T02:46:48;5.97;;;4.40;;
781;SDS011;374;52.568;13.402;2022-09-21T02:49:19;4.27;;;3.97;;
781;SDS011;374;52.568;13.402;2022-09-21T02:51:51;5.10;;;4.60;;
781;SDS011;374;52.568;13.402;2022-09-21T02:54:21;4.90;;;4.50;;
781;SDS011;374;52.568;13.402;2022-09-21T02:56:54;6.50;;;4.63;;
781;SDS011;374;52.568;13.402;2022-09-21T02:59:22;4.53;;;4.13;;
781;SDS011;374;52.568;13.402;2022-09-21T03:01:48;6.07;;;4.10;;
781;SDS011;374;52.568;13.402;2022-09-21T03:04:15;5.27;;;3.73;;
781;SDS011;374;52.568;13.402;2022-09-21T03:06:41;4.63;;;4.17;;
781;SDS011;374;52.568;13.402;2022-09-21T03:09:07;5.30;;;4.90;;
781;SDS011;374;52.568;13.402;2022-09-21T03:11:33;5.20;;;4.77;;
781;SDS011;374;52.568;13.402;2022-09-21T03:14:02;5.93;;;4.90;;
781;SDS011;374;52.568;13.402;2022-09-21T03:16:32;7.27;;;4.80;;
781;SDS011;374;52.568;13.402;2022-09-21T03:18:58;4.97;;;4.50;;
781;SDS011;374;52.568;13.402;2022-09-21T03:21:23;5.13;;;4.63;;
781;SDS011;374;52.568;13.402;2022-09-21T03:23:49;6.03;;;4.23;;
781;SDS011;374;52.568;13.402;2022-09-21T03:26:14;5.23;;;4.13;;
781;SDS011;374;52.568;13.402;2022-09-21T03:28:40;4.50;;;4.10;;
781;SDS011;374;52.568;13.402;2022-09-21T03:31:06;5.30;;;4.13;;
781;SDS011;374;52.568;13.402;2022-09-21T03:33:32;4.43;;;4.03;;
781;SDS011;374;52.568;13.402;2022-09-21T03:35:57;4.67;;;4.27;;
781;SDS011;374;52.568;13.402;2022-09-21T03:38:23;5.93;;;4.40;;
781;SDS011;374;52.568;13.402;2022-09-21T03:40:50;8.20;;;4.30;;
781;SDS011;374;52.568;13.402;2022-09-21T03:43:16;6.50;;;4.40;;
781;SDS011;374;52.568;13.402;2022-09-21T03:45:42;4.93;;;4.50;;
781;SDS011;374;52.568;13.402;2022-09-21T03:48:09;5.90;;;4.43;;
781;SDS011;374;52.568;13.402;2022-09-21T03:50:35;3.97;;;3.33;;
781;SDS011;374;52.568;13.402;2022-09-21T03:53:01;4.97;;;4.57;;
781;SDS011;374;52.568;13.402;2022-09-21T03:55:26;6.43;;;4.53;;
781;SDS011;374;52.568;13.402;2022-09-21T03:57:53;4.43;;;4.03;;
781;SDS011;374;52.568;13.402;2022-09-21T04:00:19;4.63;;;4.33;;
781;SDS011;374;52.568;13.402;2022-09-21T04:02:45;5.57;;;5.00;;
781;SDS011;374;52.568;13.402;2022-09-21T04:05:11;6.40;;;4.90;;
781;SDS011;374;52.568;13.402;2022-09-21T04:07:42;6.50;;;3.70;;
781;SDS011;374;52.568;13.402;2022-09-21T04:10:10;4.93;;;4.10;;
781;SDS011;374;52.568;13.402;2022-09-21T04:12:38;4.73;;;4.30;;
781;SDS011;374;52.568;13.402;2022-09-21T04:15:08;6.10;;;5.00;;
781;SDS011;374;52.568;13.402;2022-09-21T04:17:35;7.03;;;5.53;;
781;SDS011;374;52.568;13.402;2022-09-21T04:20:01;6.00;;;5.10;;
781;SDS011;374;52.568;13.402;2022-09-21T04:22:27;6.47;;;5.53;;
781;SDS011;374;52.568;13.402;2022-09-21T04:25:00;6.37;;;5.77;;
781;SDS011;374;52.568;13.402;2022-09-21T04:27:27;6.30;;;5.70;;
781;SDS011;374;52.568;13.402;2022-09-21T04:29:52;4.93;;;4.53;;
781;SDS011;374;52.568;13.402;2022-09-21T04:32:21;5.17;;;4.70;;
781;SDS011;374;52.568;13.402;2022-09-21T04:34:46;7.40;;;5.07;;
781;SDS011;374;52.568;13.402;2022-09-21T04:37:12;6.13;;;5.10;;
781;SDS011;374;52.568;13.402;2022-09-21T04:39:39;6.40;;;5.50;;
781;SDS011;374;52.568;13.402;2022-09-21T04:42:05;5.80;;;5.30;;
781;SDS011;374;52.568;13.402;2022-09-21T04:44:32;7.70;;;5.40;;
781;SDS011;374;52.568;13.402;2022-09-21T04:46:58;6.93;;;6.23;;
781;SDS011;374;52.568;13.402;2022-09-21T04:49:24;8.97;;;5.97;;
781;SDS011;374;52.568;13.402;2022-09-21T04:51:49;6.33;;;5.70;;
781;SDS011;374;52.568;13.402;2022-09-21T04:54:15;8.53;;;6.00;;
781;SDS011;374;52.568;13.402;2022-09-21T04:56:40;6.20;;;5.63;;
781;SDS011;374;52.568;13.402;2022-09-21T04:59:06;6.87;;;6.33;;
781;SDS011;374;52.568;13.402;2022-09-21T05:01:32;6.23;;;5.73;;
781;SDS011;374;52.568;13.402;2022-09-21T05:03:57;5.23;;;4.70;;
781;SDS011;374;52.568;13.402;2022-09-21T05:06:26;5.60;;;5.10;;
781;SDS011;374;52.568;13.402;2022-09-21T05:08:55;5.03;;;4.53;;
781;SDS011;374;52.568;13.402;2022-09-21T05:11:42;5.50;;;5.00;;
781;SDS011;374;52.568;13.402;2022-09-21T05:14:08;5.70;;;4.67;;
781;SDS011;374;52.568;13.402;2022-09-21T05:16:34;5.70;;;5.10;;
781;SDS011;374;52.568;13.402;2022-09-21T05:19:00;5.33;;;4.83;;
781;SDS011;374;52.568;13.402;2022-09-21T05:21:26;6.03;;;5.47;;
781;SDS011;374;52.568;13.402;2022-09-21T05:23:51;5.30;;;4.80;;
781;SDS011;374;52.568;13.402;2022-09-21T05:26:18;6.00;;;5.40;;
781;SDS011;374;52.568;13.402;2022-09-21T05:28:45;4.90;;;4.50;;
781;SDS011;374;52.568;13.402;2022-09-21T05:37:20;6.97;;;5.87;;
781;SDS011;374;52.568;13.402;2022-09-21T05:39:49;6.03;;;5.50;;
781;SDS011;374;52.568;13.402;2022-09-21T05:42:18;6.23;;;5.63;;
781;SDS011;374;52.568;13.402;2022-09-21T05:44:49;6.70;;;6.00;;
781;SDS011;374;52.568;13.402;2022-09-21T05:56:02;6.43;;;5.63;;
781;SDS011;374;52.568;13.402;2022-09-21T06:04:07;7.30;;;5.80;;
781;SDS011;374;52.568;13.402;2022-09-21T06:06:44;5.87;;;5.37;;
781;SDS011;374;52.568;13.402;2022-09-21T06:09:15;6.00;;;5.40;;
781;SDS011;374;52.568;13.402;2022-09-21T06:17:42;6.97;;;5.20;;
781;SDS011;374;52.568;13.402;2022-09-21T06:20:12;5.73;;;5.20;;
781;SDS011;374;52.568;13.402;2022-09-21T06:22:39;5.77;;;5.17;;
781;SDS011;374;52.568;13.402;2022-09-21T06:25:09;6.90;;;4.83;;
781;SDS011;374;52.568;13.402;2022-09-21T06:27:39;7.00;;;6.33;;
781;SDS011;374;52.568;13.402;2022-09-21T06:30:07;11.90;;;10.60;;
781;SDS011;374;52.568;13.402;2022-09-21T06:32:40;9.13;;;6.30;;
781;SDS011;374;52.568;13.402;2022-09-21T06:35:11;9.60;;;7.47;;
781;SDS011;374;52.568;13.402;2022-09-21T06:37:42;5.80;;;5.30;;
781;SDS011;374;52.568;13.402;2022-09-21T06:40:18;6.40;;;4.80;;
781;SDS011;374;52.568;13.402;2022-09-21T06:42:56;7.73;;;5.87;;
781;SDS011;374;52.568;13.402;2022-09-21T06:45:37;7.20;;;6.00;;
781;SDS011;374;52.568;13.402;2022-09-21T06:48:03;7.67;;;6.57;;
781;SDS011;374;52.568;13.402;2022-09-21T06:50:29;11.60;;;7.47;;
781;SDS011;374;52.568;13.402;2022-09-21T06:52:54;10.07;;;8.30;;
781;SDS011;374;52.568;13.402;2022-09-21T06:55:26;9.40;;;8.50;;
781;SDS011;374;52.568;13.402;2022-09-21T06:57:58;9.80;;;8.80;;
781;SDS011;374;52.568;13.402;2022-09-21T07:00:26;9.87;;;8.63;;
781;SDS011;374;52.568;13.402;2022-09-21T07:02:55;10.97;;;8.50;;
781;SDS011;374;52.568;13.402;2022-09-21T07:05:24;13.20;;;11.20;;
781;SDS011;374;52.568;13.402;2022-09-21T07:07:59;12.90;;;10.27;;
781;SDS011;374;52.568;13.402;2022-09-21T07:10:28;11.80;;;8.83;;
781;SDS011;374;52.568;13.402;2022-09-21T07:13:02;11.37;;;10.20;;
781;SDS011;374;52.568;13.402;2022-09-21T07:15:30;10.90;;;9.70;;
781;SDS011;374;52.568;13.402;2022-09-21T07:17:56;10.87;;;9.87;;
781;SDS011;374;52.568;13.402;2022-09-21T07:20:23;11.20;;;10.10;;
781;SDS011;374;52.568;13.402;2022-09-21T07:22:48;12.13;;;8.83;;
781;SDS011;374;52.568;13.402;2022-09-21T07:25:14;8.57;;;7.87;;
781;SDS011;374;52.568;13.402;2022-09-21T07:27:40;8.47;;;7.40;;
781;SDS011;374;52.568;13.402;2022-09-21T07:30:06;9.67;;;7.37;;
781;SDS011;374;52.568;13.402;2022-09-21T07:32:32;9.50;;;6.63;;
781;SDS011;374;52.568;13.402;2022-09-21T07:34:58;8.43;;;6.93;;
781;SDS011;374;52.568;13.402;2022-09-21T07:37:24;8.33;;;7.53;;
781;SDS011;374;52.568;13.402;2022-09-21T07:39:51;9.10;;;7.63;;
781;SDS011;374;52.568;13.402;2022-09-21T07:42:18;12.17;;;8.10;;
781;SDS011;374;52.568;13.402;2022-09-21T07:44:46;10.87;;;7.60;;
781;SDS011;374;52.568;13.402;2022-09-21T07:47:12;11.27;;;8.83;;
781;SDS011;374;52.568;13.402;2022-09-21T07:49:38;14.20;;;9.10;;
781;SDS011;374;52.568;13.402;2022-09-21T07:52:04;11.60;;;7.47;;
781;SDS011;374;52.568;13.402;2022-09-21T07:54:30;12.03;;;7.57;;
781;SDS011;374;52.568;13.402;2022-09-21T07:57:00;15.70;;;9.47;;
781;SDS011;374;52.568;13.402;2022-09-21T07:59:44;17.80;;;7.30;;
781;SDS011;374;52.568;13.402;2022-09-21T08:02:11;17.30;;;11.77;;
781;SDS011;374;52.568;13.402;2022-09-21T08:04:36;10.67;;;8.03;;
781;SDS011;374;52.568;13.402;2022-09-21T08:07:02;10.97;;;6.87;;
781;SDS011;374;52.568;13.402;2022-09-21T08:09:28;11.20;;;7.77;;
781;SDS011;374;52.568;13.402;2022-09-21T08:11:54;12.03;;;7.63;;
781;SDS011;374;52.568;13.402;2022-09-21T08:14:21;7.80;;;7.00;;
781;SDS011;374;52.568;13.402;2022-09-21T08:16:46;12.70;;;7.13;;
781;SDS011;374;52.568;13.402;2022-09-21T08:19:13;12.63;;;7.43;;
781;SDS011;374;52.568;13.402;2022-09-21T08:21:39;14.77;;;8.40;;
781;SDS011;374;52.568;13.402;2022-09-21T08:24:05;9.43;;;7.50;;
781;SDS011;374;52.568;13.402;2022-09-21T08:26:30;10.67;;;6.40;;
781;SDS011;374;52.568;13.402;2022-09-21T08:28:57;10.20;;;7.33;;
781;SDS011;374;52.568;13.402;2022-09-21T08:31:35;8.20;;;7.43;;
781;SDS011;374;52.568;13.402;2022-09-21T08:34:07;8.93;;;7.30;;
781;SDS011;374;52.568;13.402;2022-09-21T08:36:33;8.30;;;6.27;;
781;SDS011;374;52.568;13.402;2022-09-21T08:39:02;8.40;;;6.67;;
781;SDS011;374;52.568;13.402;2022-09-21T08:41:41;8.43;;;6.67;;
781;SDS011;374;52.568;13.402;2022-09-21T08:44:40;10.23;;;6.83;;
781;SDS011;374;52.568;13.402;2022-09-21T08:47:18;11.37;;;7.20;;
781;SDS011;374;52.568;13.402;2022-09-21T08:49:56;9.83;;;5.77;;
781;SDS011;374;52.568;13.402;2022-09-21T08:52:24;15.23;;;11.70;;
781;SDS011;374;52.568;13.402;2022-09-21T08:55:18;14.60;;;9.00;;
781;SDS011;374;52.568;13.402;2022-09-21T08:57:44;8.70;;;7.20;;
781;SDS011;374;52.568;13.402;2022-09-21T09:00:15;11.93;;;8.17;;
781;SDS011;374;52.568;13.402;2022-09-21T09:03:09;7.13;;;5.47;;
781;SDS011;374;52.568;13.402;2022-09-21T09:05:58;6.17;;;5.53;;
781;SDS011;374;52.568;13.402;2022-09-21T09:15:19;8.67;;;7.23;;
781;SDS011;374;52.568;13.402;2022-09-21T09:17:58;7.20;;;5.70;;
781;SDS011;374;52.568;13.402;2022-09-21T09:20:46;5.30;;;4.80;;
781;SDS011;374;52.568;13.402;2022-09-21T09:25:58;4.80;;;4.30;;
781;SDS011;374;52.568;13.402;2022-09-21T09:32:02;6.13;;;5.40;;
781;SDS011;374;52.568;13.402;2022-09-21T09:34:41;4.00;;;3.70;;
781;SDS011;374;52.568;13.402;2022-09-21T09:37:31;4.20;;;3.80;;
781;SDS011;374;52.568;13.402;2022-09-21T09:40:10;5.13;;;4.60;;
781;SDS011;374;52.568;13.402;2022-09-21T09:46:30;5.97;;;5.40;;
781;SDS011;374;52.568;13.402;2022-09-21T09:52:16;6.30;;;4.97;;
781;SDS011;374;52.568;13.402;2022-09-21T09:55:01;4.97;;;4.57;;
781;SDS011;374;52.568;13.402;2022-09-21T09:57:43;6.50;;;4.00;;
781;SDS011;374;52.568;13.402;2022-09-21T10:07:17;4.00;;;3.70;;
781;SDS011;374;52.568;13.402;2022-09-21T10:09:47;4.23;;;3.20;;
781;SDS011;374;52.568;13.402;2022-09-21T10:12:18;3.50;;;2.80;;
781;SDS011;374;52.568;13.402;2022-09-21T10:14:51;3.90;;;3.50;;
781;SDS011;374;52.568;13.402;2022-09-21T10:17:20;4.97;;;2.50;;
781;SDS011;374;52.568;13.402;2022-09-21T10:19:48;2.47;;;2.27;;
781;SDS011;374;52.568;13.402;2022-09-21T10:22:27;4.80;;;2.17;;
781;SDS011;374;52.568;13.402;2022-09-21T10:25:27;2.17;;;1.97;;
781;SDS011;374;52.568;13.402;2022-09-21T10:28:12;12.40;;;4.20;;
781;SDS011;374;52.568;13.402;2022-09-21T10:30:48;3.40;;;2.60;;
781;SDS011;374;52.568;13.402;2022-09-21T10:36:58;2.10;;;1.90;;
781;SDS011;374;52.568;13.402;2022-09-21T10:39:47;2.47;;;1.90;;
781;SDS011;374;52.568;13.402;2022-09-21T10:42:15;3.60;;;2.30;;
781;SDS011;374;52.568;13.402;2022-09-21T10:47:22;2.10;;;2.00;;
781;SDS011;374;52.568;13.402;2022-09-21T10:50:19;1.80;;;1.70;;
781;SDS011;374;52.568;13.402;2022-09-21T10:52:58;4.47;;;1.90;;
781;SDS011;374;52.568;13.402;2022-09-21T11:05:16;1.40;;;1.30;;
781;SDS011;374;52.568;13.402;2022-09-21T11:08:20;1.37;;;1.03;;
781;SDS011;374;52.568;13.402;2022-09-21T11:14:05;1.60;;;1.50;;
781;SDS011;374;52.568;13.402;2022-09-21T11:17:02;1.53;;;1.30;;
781;SDS011;374;52.568;13.402;2022-09-21T11:26:11;2.73;;;2.53;;
781;SDS011;374;52.568;13.402;2022-09-21T11:29:10;2.40;;;2.20;;
781;SDS011;374;52.568;13.402;2022-09-21T11:43:41;1.57;;;1.30;;
781;SDS011;374;52.568;13.402;2022-09-21T11:46:23;1.90;;;1.80;;
781;SDS011;374;52.568;13.402;2022-09-21T12:13:37;2.40;;;1.70;;
781;SDS011;374;52.568;13.402;2022-09-21T12:19:09;2.10;;;1.77;;
781;SDS011;374;52.568;13.402;2022-09-21T12:22:06;2.63;;;1.67;;
781;SDS011;374;52.568;13.402;2022-09-21T12:24:37;3.60;;;2.80;;
781;SDS011;374;52.568;13.402;2022-09-21T12:27:17;1.50;;;1.40;;
781;SDS011;374;52.568;13.402;2022-09-21T12:29:52;7.43;;;1.50;;
781;SDS011;374;52.568;13.402;2022-09-21T12:32:24;1.70;;;1.60;;
781;SDS011;374;52.568;13.402;2022-09-21T12:44:06;3.57;;;2.73;;
781;SDS011;374;52.568;13.402;2022-09-21T12:46:36;5.33;;;2.73;;
781;SDS011;374;52.568;13.402;2022-09-21T12:49:14;2.63;;;1.70;;
781;SDS011;374;52.568;13.402;2022-09-21T12:51:50;1.60;;;1.50;;
781;SDS011;374;52.568;13.402;2022-09-21T12:57:27;1.83;;;1.73;;
781;SDS011;374;52.568;13.402;2022-09-21T13:00:04;1.73;;;1.63;;
781;SDS011;374;52.568;13.402;2022-09-21T13:02:52;1.80;;;1.70;;
781;SDS011;374;52.568;13.402;2022-09-21T13:08:12;2.17;;;1.70;;
781;SDS011;374;52.568;13.402;2022-09-21T13:13:34;1.60;;;1.47;;
781;SDS011;374;52.568;13.402;2022-09-21T13:16:06;1.67;;;1.57;;
781;SDS011;374;52.568;13.402;2022-09-21T13:18:54;1.60;;;1.50;;
781;SDS011;374;52.568;13.402;2022-09-21T13:21:24;4.00;;;1.63;;
781;SDS011;374;52.568;13.402;2022-09-21T13:23:57;5.30;;;1.83;;
781;SDS011;374;52.568;13.402;2022-09-21T13:26:30;2.70;;;2.03;;
781;SDS011;374;52.568;13.402;2022-09-21T13:29:02;2.80;;;2.60;;
781;SDS011;374;52.568;13.402;2022-09-21T13:31:52;1.80;;;1.70;;
781;SDS011;374;52.568;13.402;2022-09-21T13:34:41;1.67;;;1.57;;
781;SDS011;374;52.568;13.402;2022-09-21T13:45:00;3.50;;;2.60;;
781;SDS011;374;52.568;13.402;2022-09-21T13:47:40;2.70;;;2.30;;
781;SDS011;374;52.568;13.402;2022-09-21T13:50:22;2.40;;;1.67;;
781;SDS011;374;52.568;13.402;2022-09-21T13:53:07;1.73;;;1.63;;
781;SDS011;374;52.568;13.402;2022-09-21T13:55:51;1.40;;;1.30;;
781;SDS011;374;52.568;13.402;2022-09-21T13:58:46;1.83;;;1.20;;
781;SDS011;374;52.568;13.402;2022-09-21T14:01:19;2.80;;;1.50;;
781;SDS011;374;52.568;13.402;2022-09-21T14:03:54;3.10;;;1.50;;
781;SDS011;374;52.568;13.402;2022-09-21T14:06:24;1.80;;;1.70;;
781;SDS011;374;52.568;13.402;2022-09-21T14:08:57;1.10;;;1.10;;
781;SDS011;374;52.568;13.402;2022-09-21T14:11:34;1.43;;;1.33;;
781;SDS011;374;52.568;13.402;2022-09-21T14:24:34;2.10;;;2.00;;
781;SDS011;374;52.568;13.402;2022-09-21T14:27:12;4.30;;;2.17;;
781;SDS011;374;52.568;13.402;2022-09-21T14:29:55;1.50;;;1.40;;
781;SDS011;374;52.568;13.402;2022-09-21T14:33:25;2.40;;;1.63;;
781;SDS011;374;52.568;13.402;2022-09-21T14:35:49;1.60;;;1.27;;
781;SDS011;374;52.568;13.402;2022-09-21T14:38:24;1.63;;;1.50;;
781;SDS011;374;52.568;13.402;2022-09-21T14:40:56;3.43;;;1.97;;
781;SDS011;374;52.568;13.402;2022-09-21T14:43:30;2.40;;;2.20;;
781;SDS011;374;52.568;13.402;2022-09-21T14:46:16;3.23;;;2.20;;
781;SDS011;374;52.568;13.402;2022-09-21T14:57:57;5.73;;;2.93;;
781;SDS011;374;52.568;13.402;2022-09-21T15:00:40;3.60;;;2.80;;
781;SDS011;374;52.568;13.402;2022-09-21T15:12:18;4.43;;;2.70;;
781;SDS011;374;52.568;13.402;2022-09-21T15:14:59;2.93;;;1.43;;
781;SDS011;374;52.568;13.402;2022-09-21T15:17:37;1.93;;;1.33;;
781;SDS011;374;52.568;13.402;2022-09-21T15:20:20;1.40;;;1.20;;
781;SDS011;374;52.568;13.402;2022-09-21T15:22:48;1.90;;;1.70;;
781;SDS011;374;52.568;13.402;2022-09-21T15:25:18;3.00;;;2.20;;
781;SDS011;374;52.568;13.402;2022-09-21T15:27:44;7.50;;;2.90;;
781;SDS011;374;52.568;13.402;2022-09-21T15:30:24;3.40;;;2.07;;
781;SDS011;374;52.568;13.402;2022-09-21T15:32:54;1.20;;;1.10;;
781;SDS011;374;52.568;13.402;2022-09-21T15:35:27;1.40;;;1.10;;
781;SDS011;374;52.568;13.402;2022-09-21T15:37:59;1.60;;;1.50;;
781;SDS011;374;52.568;13.402;2022-09-21T15:40:46;1.63;;;1.53;;
781;SDS011;374;52.568;13.402;2022-09-21T15:43:18;2.67;;;2.10;;
781;SDS011;374;52.568;13.402;2022-09-21T15:48:21;1.50;;;1.40;;
781;SDS011;374;52.568;13.402;2022-09-21T15:50:52;3.63;;;2.80;;
781;SDS011;374;52.568;13.402;2022-09-21T15:53:26;1.57;;;1.40;;
781;SDS011;374;52.568;13.402;2022-09-21T15:55:56;1.27;;;1.20;;
781;SDS011;374;52.568;13.402;2022-09-21T15:58:35;1.30;;;1.20;;
781;SDS011;374;52.568;13.402;2022-09-21T16:01:03;1.50;;;1.40;;
781;SDS011;374;52.568;13.402;2022-09-21T16:03:42;2.80;;;1.50;;
781;SDS011;374;52.568;13.402;2022-09-21T16:06:45;3.23;;;2.00;;
781;SDS011;374;52.568;13.402;2022-09-21T16:16:00;1.70;;;1.60;;
781;SDS011;374;52.568;13.402;2022-09-21T16:23:47;2.17;;;1.60;;
781;SDS011;374;52.568;13.402;2022-09-21T16:26:20;2.13;;;1.70;;
781;SDS011;374;52.568;13.402;2022-09-21T16:29:14;2.77;;;2.57;;
781;SDS011;374;52.568;13.402;2022-09-21T16:31:45;2.83;;;1.70;;
781;SDS011;374;52.568;13.402;2022-09-21T16:34:19;2.40;;;2.03;;
781;SDS011;374;52.568;13.402;2022-09-21T16:36:50;1.97;;;1.60;;
781;SDS011;374;52.568;13.402;2022-09-21T16:39:57;2.93;;;1.73;;
781;SDS011;374;52.568;13.402;2022-09-21T16:43:10;1.50;;;1.40;;
781;SDS011;374;52.568;13.402;2022-09-21T16:45:36;1.67;;;1.57;;
781;SDS011;374;52.568;13.402;2022-09-21T16:48:02;2.33;;;1.33;;
781;SDS011;374;52.568;13.402;2022-09-21T16:50:31;1.90;;;1.40;;
781;SDS011;374;52.568;13.402;2022-09-21T16:52:57;2.30;;;2.20;;
781;SDS011;374;52.568;13.402;2022-09-21T16:55:47;2.00;;;1.70;;
781;SDS011;374;52.568;13.402;2022-09-21T16:58:20;2.33;;;1.80;;
781;SDS011;374;52.568;13.402;2022-09-21T17:01:09;1.70;;;1.60;;
781;SDS011;374;52.568;13.402;2022-09-21T17:03:38;1.73;;;1.63;;
781;SDS011;374;52.568;13.402;2022-09-21T17:06:06;2.03;;;1.80;;
781;SDS011;374;52.568;13.402;2022-09-21T17:08:45;2.37;;;2.17;;
781;SDS011;374;52.568;13.402;2022-09-21T17:11:33;2.40;;;2.20;;
781;SDS011;374;52.568;13.402;2022-09-21T17:13:58;2.00;;;1.73;;
781;SDS011;374;52.568;13.402;2022-09-21T17:16:25;2.53;;;1.90;;
781;SDS011;374;52.568;13.402;2022-09-21T17:18:50;2.57;;;2.20;;
781;SDS011;374;52.568;13.402;2022-09-21T17:21:17;4.23;;;3.90;;
781;SDS011;374;52.568;13.402;2022-09-21T17:23:58;15.37;;;13.93;;
781;SDS011;374;52.568;13.402;2022-09-21T17:26:23;16.77;;;15.27;;
781;SDS011;374;52.568;13.402;2022-09-21T17:28:52;15.63;;;14.13;;
781;SDS011;374;52.568;13.402;2022-09-21T17:35:31;11.30;;;10.10;;
781;SDS011;374;52.568;13.402;2022-09-21T17:38:02;13.33;;;12.03;;
781;SDS011;374;52.568;13.402;2022-09-21T17:40:34;13.93;;;12.53;;
781;SDS011;374;52.568;13.402;2022-09-21T17:43:31;13.13;;;11.60;;
781;SDS011;374;52.568;13.402;2022-09-21T17:46:32;14.00;;;12.00;;
781;SDS011;374;52.568;13.402;2022-09-21T17:49:02;11.73;;;10.50;;
781;SDS011;374;52.568;13.402;2022-09-21T17:51:45;7.83;;;7.03;;
781;SDS011;374;52.568;13.402;2022-09-21T17:54:33;6.93;;;5.70;;
781;SDS011;374;52.568;13.402;2022-09-21T18:06:19;4.73;;;4.23;;
781;SDS011;374;52.568;13.402;2022-09-21T18:08:50;6.67;;;4.67;;
781;SDS011;374;52.568;13.402;2022-09-21T18:14:39;10.00;;;5.93;;
781;SDS011;374;52.568;13.402;2022-09-21T18:21:20;3.93;;;3.53;;
781;SDS011;374;52.568;13.402;2022-09-21T18:26:39;8.70;;;4.77;;
781;SDS011;374;52.568;13.402;2022-09-21T18:38:48;4.17;;;3.87;;
781;SDS011;374;52.568;13.402;2022-09-21T18:47:46;6.53;;;4.40;;
781;SDS011;374;52.568;13.402;2022-09-21T18:53:26;5.57;;;3.87;;
781;SDS011;374;52.568;13.402;2022-09-21T18:56:02;4.40;;;3.80;;
781;SDS011;374;52.568;13.402;2022-09-21T18:58:30;7.00;;;5.17;;
781;SDS011;374;52.568;13.402;2022-09-21T19:01:15;4.87;;;4.37;;
781;SDS011;374;52.568;13.402;2022-09-21T19:03:46;8.87;;;5.00;;
781;SDS011;374;52.568;13.402;2022-09-21T19:06:29;5.40;;;4.60;;
781;SDS011;374;52.568;13.402;2022-09-21T19:20:53;5.70;;;5.20;;
781;SDS011;374;52.568;13.402;2022-09-21T19:23:36;7.10;;;6.50;;
781;SDS011;374;52.568;13.402;2022-09-21T19:26:28;10.57;;;6.77;;
781;SDS011;374;52.568;13.402;2022-09-21T19:32:50;7.33;;;6.73;;
781;SDS011;374;52.568;13.402;2022-09-21T19:35:26;7.97;;;7.17;;
781;SDS011;374;52.568;13.402;2022-09-21T19:37:58;8.23;;;7.53;;
781;SDS011;374;52.568;13.402;2022-09-21T19:40:31;8.00;;;7.20;;
781;SDS011;374;52.568;13.402;2022-09-21T19:47:28;7.37;;;6.63;;
781;SDS011;374;52.568;13.402;2022-09-21T19:49:49;8.10;;;7.30;;
781;SDS011;374;52.568;13.402;2022-09-21T19:52:30;8.70;;;7.83;;
781;SDS011;374;52.568;13.402;2022-09-21T19:55:02;11.50;;;8.73;;
781;SDS011;374;52.568;13.402;2022-09-21T19:57:49;8.83;;;7.90;;
781;SDS011;374;52.568;13.402;2022-09-21T20:04:06;10.07;;;9.10;;
781;SDS011;374;52.568;13.402;2022-09-21T20:10:24;9.30;;;8.03;;
781;SDS011;374;52.568;13.402;2022-09-21T20:13:01;9.50;;;7.90;;
781;SDS011;374;52.568;13.402;2022-09-21T20:15:49;8.37;;;7.50;;
781;SDS011;374;52.568;13.402;2022-09-21T20:18:44;11.53;;;8.30;;
781;SDS011;374;52.568;13.402;2022-09-21T20:21:42;14.87;;;11.83;;
781;SDS011;374;52.568;13.402;2022-09-21T20:27:25;14.07;;;11.10;;
781;SDS011;374;52.568;13.402;2022-09-21T20:29:59;11.07;;;10.03;;
781;SDS011;374;52.568;13.402;2022-09-21T20:32:43;12.07;;;10.87;;
781;SDS011;374;52.568;13.402;2022-09-21T20:35:22;14.13;;;11.10;;
781;SDS011;374;52.568;13.402;2022-09-21T20:37:51;13.07;;;10.93;;
781;SDS011;374;52.568;13.402;2022-09-21T20:40:17;13.80;;;12.40;;
781;SDS011;374;52.568;13.402;2022-09-21T20:42:44;13.90;;;12.50;;
781;SDS011;374;52.568;13.402;2022-09-21T20:45:10;14.00;;;12.50;;
781;SDS011;374;52.568;13.402;2022-09-21T20:47:37;12.77;;;11.53;;